createdAt,value
2022-08-26T00:01:54.388Z,73.74
2022-08-26T00:04:25.477Z,74.07
2022-08-26T00:06:53.473Z,73.67
2022-08-26T00:09:20.453Z,74.14
2022-08-26T00:11:47.346Z,73.69
2022-08-26T00:14:15.134Z,73.70
2022-08-26T00:16:47.165Z,74.07
2022-08-26T00:19:19.287Z,73.97
2022-08-26T00:21:48.550Z,74.78
2022-08-26T00:24:16.255Z,74.06
2022-08-26T00:26:43.383Z,73.56
2022-08-26T00:29:10.180Z,74.19
2022-08-26T00:31:37.395Z,74.88
2022-08-26T00:34:04.117Z,74.84
2022-08-26T00:36:31.244Z,75.52
2022-08-26T00:38:58.400Z,75.55
2022-08-26T00:41:25.362Z,76.13
2022-08-26T00:43:53.002Z,75.93
2022-08-26T00:46:28.962Z,75.91
2022-08-26T00:49:04.080Z,76.06
2022-08-26T00:51:53.441Z,75.88
2022-08-26T00:54:23.164Z,75.63
2022-08-26T00:57:02.545Z,75.50
2022-08-26T00:59:32.999Z,75.21
2022-08-26T01:02:02.910Z,75.76
2022-08-26T01:04:31.468Z,75.24
2022-08-26T01:06:59.275Z,75.53
2022-08-26T01:09:26.426Z,75.28
2022-08-26T01:11:56.555Z,75.00
2022-08-26T01:14:26.857Z,75.11
2022-08-26T01:16:53.625Z,74.84
2022-08-26T01:19:29.874Z,75.35
2022-08-26T01:22:00.228Z,75.21
2022-08-26T01:24:29.187Z,74.92
2022-08-26T01:27:02.312Z,75.56
2022-08-26T01:29:30.906Z,76.25
2022-08-26T01:31:58.216Z,76.38
2022-08-26T01:34:31.462Z,76.94
2022-08-26T01:37:13.773Z,77.00
2022-08-26T01:39:44.940Z,76.75
2022-08-26T01:42:14.675Z,76.59
2022-08-26T01:45:00.078Z,76.90
2022-08-26T01:47:31.036Z,76.38
2022-08-26T01:50:02.902Z,76.38
2022-08-26T01:52:33.673Z,76.30
2022-08-26T01:55:00.916Z,77.08
2022-08-26T01:57:28.793Z,77.12
2022-08-26T01:59:58.609Z,77.40
2022-08-26T02:02:25.911Z,76.74
2022-08-26T02:04:57.327Z,76.81
2022-08-26T02:07:26.686Z,77.02
2022-08-26T02:09:53.996Z,77.44
2022-08-26T02:12:21.737Z,77.46
2022-08-26T02:14:53.306Z,77.81
2022-08-26T02:17:25.167Z,77.12
2022-08-26T02:19:52.501Z,76.66
2022-08-26T02:22:24.661Z,77.30
2022-08-26T02:25:06.115Z,77.61
2022-08-26T02:27:35.567Z,77.17
2022-08-26T02:30:10.862Z,77.22
2022-08-26T02:32:37.849Z,77.10
2022-08-26T02:35:08.780Z,76.95
2022-08-26T02:37:36.251Z,77.26
2022-08-26T02:40:05.180Z,76.77
2022-08-26T02:42:32.373Z,76.66
2022-08-26T02:45:00.298Z,76.63
2022-08-26T02:47:28.986Z,76.62
2022-08-26T02:49:56.115Z,76.38
2022-08-26T02:52:22.822Z,75.98
2022-08-26T02:54:49.741Z,77.03
2022-08-26T03:00:15.264Z,78.34
2022-08-26T03:02:42.098Z,78.46
2022-08-26T03:05:27.117Z,78.08
2022-08-26T03:07:53.955Z,78.19
2022-08-26T03:10:22.341Z,78.25
2022-08-26T03:13:05.155Z,78.64
2022-08-26T03:15:48.386Z,78.28
2022-08-26T03:18:20.850Z,78.51
2022-08-26T03:20:47.802Z,78.15
2022-08-26T03:23:15.484Z,77.64
2022-08-26T03:25:42.297Z,77.47
2022-08-26T03:28:15.430Z,77.43
2022-08-26T03:30:46.188Z,77.76
2022-08-26T03:33:14.101Z,77.87
2022-08-26T03:38:25.903Z,78.24
2022-08-26T03:40:53.670Z,77.80
2022-08-26T03:43:38.212Z,77.86
2022-08-26T03:46:09.319Z,77.48
2022-08-26T03:48:36.115Z,78.15
2022-08-26T03:51:04.590Z,77.94
2022-08-26T03:53:31.385Z,78.37
2022-08-26T03:55:58.149Z,77.64
2022-08-26T03:58:25.393Z,77.76
2022-08-26T04:00:55.678Z,78.43
2022-08-26T04:03:41.744Z,78.18
2022-08-26T04:06:09.155Z,77.61
2022-08-26T04:08:36.397Z,78.30
2022-08-26T04:11:03.562Z,78.36
2022-08-26T04:13:30.486Z,78.33
2022-08-26T04:15:57.607Z,77.87
2022-08-26T04:18:24.365Z,77.40
2022-08-26T04:20:50.962Z,77.73
2022-08-26T04:23:17.653Z,77.16
2022-08-26T04:25:44.267Z,77.59
2022-08-26T04:28:11.033Z,77.68
2022-08-26T04:30:38.439Z,77.36
2022-08-26T04:33:12.599Z,77.62
2022-08-26T04:35:39.732Z,77.33
2022-08-26T04:38:10.884Z,76.74
2022-08-26T04:40:42.550Z,76.60
2022-08-26T04:43:14.170Z,76.22
2022-08-26T04:45:41.922Z,75.87
2022-08-26T04:48:11.029Z,76.14
2022-08-26T04:50:38.240Z,75.72
2022-08-26T04:53:09.810Z,75.35
2022-08-26T04:55:38.156Z,75.41
2022-08-26T04:58:10.236Z,76.11
2022-08-26T05:00:37.524Z,76.66
2022-08-26T05:03:04.265Z,76.71
2022-08-26T05:05:32.296Z,76.44
2022-08-26T05:08:00.536Z,76.27
2022-08-26T05:10:27.555Z,76.04
2022-08-26T05:12:54.698Z,75.44
2022-08-26T05:15:21.306Z,75.52
2022-08-26T05:17:49.375Z,75.93
2022-08-26T05:20:16.415Z,75.66
2022-08-26T05:22:44.342Z,75.31
2022-08-26T05:25:10.955Z,74.75
2022-08-26T05:27:37.776Z,74.17
2022-08-26T05:30:06.587Z,73.23
2022-08-26T05:32:33.167Z,73.01
2022-08-26T05:34:59.816Z,72.54
2022-08-26T05:37:27.314Z,71.79
2022-08-26T05:39:54.022Z,71.95
2022-08-26T05:42:20.796Z,72.18
2022-08-26T05:44:55.675Z,72.35
2022-08-26T05:47:22.996Z,71.73
2022-08-26T05:49:51.656Z,71.03
2022-08-26T05:52:19.162Z,70.62
2022-08-26T05:54:45.793Z,70.88
2022-08-26T05:57:14.736Z,70.39
2022-08-26T05:59:41.421Z,70.11
2022-08-26T06:02:08.603Z,70.07
2022-08-26T06:04:35.637Z,69.27
2022-08-26T06:07:03.288Z,69.20
2022-08-26T06:09:32.247Z,68.69
2022-08-26T06:12:01.954Z,67.72
2022-08-26T06:14:30.612Z,66.91
2022-08-26T06:16:57.584Z,66.24
2022-08-26T06:19:24.380Z,65.94
2022-08-26T06:21:54.715Z,65.32
2022-08-26T06:24:41.421Z,65.18
2022-08-26T06:27:16.945Z,64.38
2022-08-26T06:29:44.115Z,64.25
2022-08-26T06:32:11.127Z,63.88
2022-08-26T06:34:38.310Z,63.15
2022-08-26T06:37:06.479Z,62.92
2022-08-26T06:39:45.514Z,62.49
2022-08-26T06:42:12.702Z,62.75
2022-08-26T06:44:40.905Z,62.56
2022-08-26T06:47:07.883Z,61.80
2022-08-26T06:49:34.909Z,61.56
2022-08-26T06:52:01.599Z,60.89
2022-08-26T06:54:31.820Z,61.11
2022-08-26T06:56:59.193Z,60.78
2022-08-26T06:59:27.944Z,60.44
2022-08-26T07:01:55.170Z,60.67
2022-08-26T07:04:23.097Z,60.13
2022-08-26T07:06:52.838Z,59.82
2022-08-26T07:09:25.573Z,59.44
2022-08-26T07:11:53.558Z,58.40
2022-08-26T07:14:21.938Z,58.27
2022-08-26T07:16:52.109Z,58.08
2022-08-26T07:19:31.129Z,56.98
2022-08-26T07:22:03.950Z,56.66
2022-08-26T07:24:35.888Z,54.80
2022-08-26T07:27:05.859Z,54.34
2022-08-26T07:29:33.297Z,52.84
2022-08-26T07:32:00.132Z,52.84
2022-08-26T07:34:27.361Z,51.91
2022-08-26T07:36:55.347Z,51.25
2022-08-26T07:39:22.616Z,51.32
2022-08-26T07:41:49.781Z,49.91
2022-08-26T07:44:16.774Z,49.81
2022-08-26T07:46:44.096Z,50.17
2022-08-26T07:49:12.314Z,49.07
2022-08-26T07:51:39.811Z,48.17
2022-08-26T07:54:07.305Z,47.97
2022-08-26T07:56:34.517Z,48.25
2022-08-26T07:59:03.914Z,48.37
2022-08-26T08:01:40.934Z,48.34
2022-08-26T08:04:13.172Z,47.00
2022-08-26T08:06:41.789Z,47.09
2022-08-26T08:09:12.541Z,46.38
2022-08-26T08:11:41.518Z,46.29
2022-08-26T08:14:18.480Z,46.54
2022-08-26T08:16:50.991Z,46.85
2022-08-26T08:19:21.196Z,47.40
2022-08-26T08:21:51.409Z,48.87
2022-08-26T08:24:18.581Z,49.06
2022-08-26T08:26:47.622Z,49.09
2022-08-26T08:29:14.288Z,48.83
2022-08-26T08:31:58.496Z,48.17
2022-08-26T08:34:27.271Z,48.15
2022-08-26T08:36:54.623Z,48.30
2022-08-26T08:39:22.525Z,48.75
2022-08-26T08:42:04.328Z,48.23
2022-08-26T08:44:31.348Z,47.60
2022-08-26T08:47:24.709Z,47.70
2022-08-26T08:49:54.583Z,47.11
2022-08-26T08:52:37.355Z,46.44
2022-08-26T08:55:11.167Z,46.79
2022-08-26T08:58:02.810Z,46.62
2022-08-26T09:00:39.789Z,46.19
2022-08-26T09:03:33.812Z,45.52
2022-08-26T09:06:02.742Z,45.55
2022-08-26T09:08:39.060Z,45.08
2022-08-26T09:11:09.443Z,43.51
2022-08-26T09:13:39.708Z,42.93
2022-08-26T09:16:27.927Z,40.67
2022-08-26T09:19:13.182Z,39.75
2022-08-26T09:22:08.281Z,39.54
2022-08-26T09:24:42.081Z,39.47
2022-08-26T09:27:40.884Z,39.13
2022-08-26T09:30:11.460Z,37.53
2022-08-26T09:32:39.144Z,36.29
2022-08-26T09:35:11.769Z,34.80
2022-08-26T09:40:22.792Z,32.72
2022-08-26T09:43:23.097Z,32.04
2022-08-26T09:45:59.216Z,32.29
2022-08-26T09:48:36.626Z,32.29
2022-08-26T09:51:07.862Z,33.07
2022-08-26T09:53:49.676Z,32.79
2022-08-26T09:56:25.380Z,33.18
2022-08-26T09:58:53.156Z,32.29
2022-08-26T10:01:35.362Z,31.47
2022-08-26T10:04:13.419Z,31.43
2022-08-26T10:06:54.596Z,31.18
2022-08-26T10:09:23.217Z,32.73
2022-08-26T10:11:54.306Z,32.47
2022-08-26T10:14:39.392Z,31.25
2022-08-26T10:17:08.297Z,30.95
2022-08-26T10:19:51.625Z,31.16
2022-08-26T10:22:36.852Z,31.88
2022-08-26T10:25:07.000Z,31.11
2022-08-26T10:27:53.395Z,30.75
2022-08-26T10:30:23.517Z,30.72
2022-08-26T10:33:14.958Z,30.08
2022-08-26T10:35:56.656Z,30.64
2022-08-26T10:38:34.484Z,30.35
2022-08-26T10:41:22.456Z,30.47
2022-08-26T10:43:51.683Z,30.30
2022-08-26T10:46:27.415Z,29.85
2022-08-26T10:49:09.160Z,29.46
2022-08-26T10:51:46.280Z,29.90
2022-08-26T10:54:26.193Z,29.75
2022-08-26T10:56:57.470Z,29.83
2022-08-26T10:59:49.273Z,29.43
2022-08-26T11:02:37.387Z,29.71
2022-08-26T11:05:15.425Z,28.31
2022-08-26T11:07:51.480Z,28.18
2022-08-26T11:10:21.589Z,28.95
2022-08-26T11:13:00.871Z,28.52
2022-08-26T11:15:29.305Z,28.74
2022-08-26T11:18:01.959Z,28.65
2022-08-26T11:20:35.057Z,28.42
2022-08-26T11:23:35.020Z,28.45
2022-08-26T11:26:37.588Z,27.58
2022-08-26T11:29:57.198Z,27.26
2022-08-26T11:32:41.147Z,27.87
2022-08-26T11:35:21.879Z,28.53
2022-08-26T11:37:48.555Z,28.25
2022-08-26T11:40:20.425Z,27.79
2022-08-26T11:43:06.335Z,27.72
2022-08-26T11:45:37.862Z,27.57
2022-08-26T11:48:33.960Z,26.13
2022-08-26T11:51:16.015Z,26.59
2022-08-26T11:53:52.285Z,26.57
2022-08-26T11:56:27.017Z,26.67
2022-08-26T11:59:02.129Z,26.54
2022-08-26T12:01:45.475Z,26.37
2022-08-26T12:04:22.357Z,26.21
2022-08-26T12:06:51.703Z,26.24
2022-08-26T12:09:32.995Z,26.27
2022-08-26T12:12:22.064Z,25.51
2022-08-26T12:14:48.656Z,25.82
2022-08-26T12:17:26.664Z,25.97
2022-08-26T12:20:03.821Z,26.40
2022-08-26T12:22:34.901Z,25.98
2022-08-26T12:25:14.741Z,26.06
2022-08-26T12:27:53.071Z,26.77
2022-08-26T12:30:30.320Z,26.27
2022-08-26T12:33:22.972Z,26.40
2022-08-26T12:35:57.006Z,27.10
2022-08-26T12:38:27.130Z,27.80
2022-08-26T12:40:56.169Z,27.56
2022-08-26T12:43:44.253Z,26.97
2022-08-26T12:46:18.119Z,26.83
2022-08-26T12:49:05.309Z,27.59
2022-08-26T12:51:33.179Z,27.01
2022-08-26T12:54:00.515Z,26.69
2022-08-26T12:56:47.332Z,26.97
2022-08-26T12:59:25.363Z,26.07
2022-08-26T13:01:53.716Z,25.29
2022-08-26T13:05:00.582Z,25.24
2022-08-26T13:07:31.188Z,24.52
2022-08-26T13:10:00.044Z,24.61
2022-08-26T13:12:41.146Z,25.00
2022-08-26T13:15:11.318Z,24.21
2022-08-26T13:17:39.471Z,24.66
2022-08-26T13:20:10.659Z,24.44
2022-08-26T13:22:38.320Z,24.80
2022-08-26T13:25:05.535Z,24.25
2022-08-26T13:27:35.878Z,23.98
2022-08-26T13:30:04.647Z,23.87
2022-08-26T13:32:32.127Z,23.77
2022-08-26T13:34:59.093Z,23.43
2022-08-26T13:37:34.409Z,23.33
2022-08-26T13:40:05.254Z,23.14
2022-08-26T13:42:36.032Z,23.04
2022-08-26T13:45:04.011Z,23.40
2022-08-26T13:47:30.886Z,23.51
2022-08-26T13:49:58.084Z,23.09
2022-08-26T13:52:30.235Z,22.96
2022-08-26T13:55:03.709Z,22.97
2022-08-26T13:57:30.734Z,22.58
2022-08-26T14:00:00.622Z,22.91
2022-08-26T14:02:31.428Z,22.55
2022-08-26T14:05:07.390Z,22.62
2022-08-26T14:07:49.746Z,21.82
2022-08-26T14:13:11.608Z,21.95
2022-08-26T14:15:38.521Z,22.12
2022-08-26T14:20:51.107Z,21.69
2022-08-26T14:23:26.224Z,21.07
2022-08-26T14:25:56.480Z,21.40
2022-08-26T14:28:23.247Z,21.49
2022-08-26T14:30:56.127Z,21.27
2022-08-26T14:33:26.252Z,21.03
2022-08-26T14:35:53.023Z,20.68
2022-08-26T14:38:19.905Z,20.87
2022-08-26T14:40:46.690Z,20.61
2022-08-26T14:43:17.704Z,20.84
2022-08-26T14:45:45.233Z,21.08
2022-08-26T14:48:12.623Z,21.73
2022-08-26T14:50:39.369Z,21.19
2022-08-26T14:53:28.939Z,20.37
2022-08-26T14:55:55.625Z,20.26
2022-08-26T14:58:22.270Z,20.29
2022-08-26T15:00:48.902Z,19.63
2022-08-26T15:04:32.320Z,19.59
2022-08-26T15:07:00.470Z,19.44
2022-08-26T15:09:29.143Z,19.20
2022-08-26T15:11:56.498Z,19.06
2022-08-26T15:14:24.438Z,18.94
2022-08-26T15:16:54.611Z,18.98
2022-08-26T15:19:22.743Z,18.70
2022-08-26T15:21:50.036Z,18.73
2022-08-26T15:24:20.557Z,18.54
2022-08-26T15:26:48.789Z,18.67
2022-08-26T15:29:19.392Z,18.51
2022-08-26T15:31:47.644Z,18.32
2022-08-26T15:34:16.909Z,17.91
2022-08-26T15:36:51.296Z,18.11
2022-08-26T15:39:19.650Z,19.24
2022-08-26T15:41:47.560Z,19.26
2022-08-26T15:44:17.372Z,19.67
2022-08-26T15:46:44.980Z,19.11
2022-08-26T15:49:12.032Z,18.43
2022-08-26T15:51:48.200Z,18.31
2022-08-26T15:54:17.208Z,17.78
2022-08-26T15:56:45.186Z,19.24
2022-08-26T15:59:12.210Z,20.59
2022-08-26T16:01:39.657Z,21.10
2022-08-26T16:04:06.918Z,21.60
2022-08-26T16:06:36.723Z,22.37
2022-08-26T16:09:05.024Z,23.22
2022-08-26T16:11:32.000Z,22.92
2022-08-26T16:13:58.741Z,22.95
2022-08-26T16:16:26.561Z,23.63
2022-08-26T16:18:59.839Z,23.90
2022-08-26T16:21:28.705Z,24.80
2022-08-26T16:23:56.244Z,25.82
2022-08-26T16:26:26.620Z,25.98
2022-08-26T16:29:15.752Z,26.49
2022-08-26T16:31:42.844Z,28.51
2022-08-26T16:36:53.917Z,32.05
2022-08-26T16:40:14.835Z,33.92
2022-08-26T16:42:41.589Z,34.76
2022-08-26T16:45:08.876Z,35.52
2022-08-26T16:47:44.119Z,35.51
2022-08-26T16:50:18.555Z,36.13
2022-08-26T16:52:45.408Z,36.96
2022-08-26T16:55:15.360Z,37.55
2022-08-26T16:57:47.025Z,37.98
2022-08-26T17:00:31.000Z,39.05
2022-08-26T17:02:59.832Z,39.23
2022-08-26T17:05:27.934Z,40.04
2022-08-26T17:07:57.119Z,40.12
2022-08-26T17:10:25.198Z,39.88
2022-08-26T17:12:53.013Z,40.09
2022-08-26T17:15:20.538Z,40.86
2022-08-26T17:17:49.864Z,41.16
2022-08-26T17:20:23.389Z,41.74
2022-08-26T17:22:52.858Z,41.44
2022-08-26T17:25:22.055Z,41.42
2022-08-26T17:27:48.915Z,41.30
2022-08-26T17:30:16.633Z,41.96
2022-08-26T17:32:44.092Z,42.41
2022-08-26T17:35:13.009Z,42.97
2022-08-26T17:37:42.941Z,43.11
2022-08-26T17:40:12.991Z,43.70
2022-08-26T17:42:40.816Z,44.24
2022-08-26T17:45:08.870Z,44.12
2022-08-26T17:47:45.606Z,43.86
2022-08-26T17:50:17.030Z,44.11
2022-08-26T17:52:54.385Z,44.51
2022-08-26T17:55:21.422Z,44.35
2022-08-26T17:57:53.566Z,44.40
2022-08-26T18:00:23.742Z,44.53
2022-08-26T18:02:50.526Z,44.76
2022-08-26T18:05:18.235Z,45.42
2022-08-26T18:07:46.027Z,45.17
2022-08-26T18:10:15.766Z,45.29
2022-08-26T18:12:46.706Z,45.50
2022-08-26T18:15:19.118Z,44.80
2022-08-26T18:17:46.124Z,45.20
2022-08-26T18:20:19.081Z,45.50
2022-08-26T18:22:47.565Z,46.58
2022-08-26T18:25:15.671Z,47.35
2022-08-26T18:27:45.734Z,47.53
2022-08-26T18:30:20.048Z,47.29
2022-08-26T18:32:53.443Z,47.09
2022-08-26T18:35:21.661Z,47.23
2022-08-26T18:37:48.725Z,47.88
2022-08-26T18:40:16.610Z,48.54
2022-08-26T18:42:44.153Z,49.45
2022-08-26T18:45:16.121Z,49.79
2022-08-26T18:47:44.176Z,49.87
2022-08-26T18:50:11.272Z,50.31
2022-08-26T18:52:38.225Z,50.84
2022-08-26T18:55:07.177Z,51.89
2022-08-26T18:57:37.253Z,52.75
2022-08-26T19:00:06.239Z,54.67
2022-08-26T19:02:33.395Z,54.67
2022-08-26T19:05:00.486Z,54.78
2022-08-26T19:07:27.136Z,55.11
2022-08-26T19:09:54.234Z,56.15
2022-08-26T19:12:24.207Z,56.00
2022-08-26T19:14:53.774Z,55.18
2022-08-26T19:17:20.667Z,55.00
2022-08-26T19:19:49.855Z,55.06
2022-08-26T19:22:16.781Z,55.49
2022-08-26T19:24:43.595Z,55.25
2022-08-26T19:27:14.569Z,55.16
2022-08-26T19:29:42.239Z,55.30
2022-08-26T19:32:09.003Z,55.26
2022-08-26T19:34:36.648Z,54.86
2022-08-26T19:37:03.347Z,55.16
2022-08-26T19:39:30.059Z,55.88
2022-08-26T19:41:56.896Z,55.46
2022-08-26T19:44:42.628Z,55.59
2022-08-26T19:47:11.244Z,56.27
2022-08-26T19:49:38.605Z,55.67
2022-08-26T19:52:06.117Z,55.96
2022-08-26T19:54:33.502Z,55.86
2022-08-26T19:57:00.507Z,56.42
2022-08-26T19:59:27.350Z,56.03
2022-08-26T20:02:01.399Z,55.29
2022-08-26T20:04:30.581Z,55.46
2022-08-26T20:07:00.471Z,55.32
2022-08-26T20:09:28.698Z,55.02
2022-08-26T20:11:56.793Z,55.02
2022-08-26T20:14:27.625Z,55.27
2022-08-26T20:16:54.534Z,56.83
2022-08-26T20:19:43.057Z,56.33
2022-08-26T20:22:15.487Z,56.98
2022-08-26T20:24:42.412Z,57.50
2022-08-26T20:27:09.782Z,58.07
2022-08-26T20:29:40.813Z,57.95
2022-08-26T20:32:08.045Z,57.13
2022-08-26T20:34:36.273Z,57.09
2022-08-26T20:37:03.795Z,56.42
2022-08-26T20:39:30.554Z,56.46
2022-08-26T20:41:58.402Z,57.02
2022-08-26T20:44:26.011Z,57.57
2022-08-26T20:46:53.219Z,59.03
2022-08-26T20:49:20.061Z,59.60
2022-08-26T20:51:51.445Z,59.55
2022-08-26T20:54:22.122Z,59.75
2022-08-26T20:56:50.972Z,59.01
2022-08-26T20:59:18.210Z,59.17
2022-08-26T21:01:45.160Z,59.36
2022-08-26T21:04:15.821Z,59.42
2022-08-26T21:06:48.977Z,59.79
2022-08-26T21:09:21.722Z,59.44
2022-08-26T21:11:48.638Z,59.59
2022-08-26T21:14:16.996Z,59.48
2022-08-26T21:16:45.293Z,59.93
2022-08-26T21:19:15.165Z,61.35
2022-08-26T21:21:42.259Z,62.11
2022-08-26T21:24:09.409Z,62.89
2022-08-26T21:26:36.594Z,63.28
2022-08-26T21:29:04.047Z,63.84
2022-08-26T21:31:32.243Z,64.37
2022-08-26T21:33:59.830Z,64.28
2022-08-26T21:36:26.923Z,65.22
2022-08-26T21:38:58.724Z,64.66
2022-08-26T21:41:26.693Z,65.59
2022-08-26T21:43:58.039Z,64.81
2022-08-26T21:46:26.174Z,65.49
2022-08-26T21:49:01.909Z,66.22
2022-08-26T21:51:32.244Z,66.54
2022-08-26T21:54:00.700Z,66.61
2022-08-26T21:56:30.075Z,66.72
2022-08-26T21:59:00.462Z,67.94
2022-08-26T22:01:32.040Z,67.43
2022-08-26T22:03:59.185Z,67.80
2022-08-26T22:06:27.441Z,67.68
2022-08-26T22:08:55.392Z,69.07
2022-08-26T22:11:28.143Z,68.76
2022-08-26T22:13:56.858Z,68.91
2022-08-26T22:16:24.507Z,68.60
2022-08-26T22:18:51.378Z,68.46
2022-08-26T22:21:21.255Z,68.67
2022-08-26T22:23:48.027Z,68.90
2022-08-26T22:26:25.327Z,68.95
2022-08-26T22:28:58.531Z,68.94
2022-08-26T22:31:38.001Z,67.97
2022-08-26T22:34:11.168Z,68.07
2022-08-26T22:36:43.745Z,68.68
2022-08-26T22:39:12.879Z,69.18
2022-08-26T22:41:40.187Z,69.38
2022-08-26T22:44:07.608Z,69.46
2022-08-26T22:46:36.801Z,70.12
2022-08-26T22:49:04.904Z,69.76
2022-08-26T22:51:32.239Z,70.15
2022-08-26T22:53:59.196Z,70.23
2022-08-26T22:56:25.841Z,70.48
2022-08-26T22:58:52.756Z,70.70
2022-08-26T23:01:19.860Z,71.18
2022-08-26T23:03:46.756Z,71.83
2022-08-26T23:06:13.638Z,71.80
2022-08-26T23:08:41.898Z,71.69
2022-08-26T23:11:10.287Z,72.00
2022-08-26T23:13:37.645Z,72.35
2022-08-26T23:16:09.305Z,72.02
2022-08-26T23:18:36.700Z,71.90
2022-08-26T23:21:03.582Z,72.43
2022-08-26T23:23:31.195Z,72.59
2022-08-26T23:25:58.485Z,72.40
2022-08-26T23:28:26.555Z,72.88
2022-08-26T23:30:54.042Z,72.55
2022-08-26T23:33:21.218Z,72.62
2022-08-26T23:35:47.981Z,73.16
2022-08-26T23:38:16.179Z,73.33
2022-08-26T23:40:43.005Z,73.40
2022-08-26T23:43:11.625Z,74.23
2022-08-26T23:45:38.826Z,73.90
2022-08-26T23:48:06.696Z,73.30
2022-08-26T23:50:52.592Z,74.34
2022-08-26T23:53:22.022Z,74.52
2022-08-26T23:55:52.362Z,74.27
2022-08-26T23:58:21.157Z,74.92
